createdAt,value
2019-03-28T00:00:09.426Z,17.90
2019-03-28T00:02:40.608Z,16.00
2019-03-28T00:05:10.043Z,13.78
2019-03-28T00:07:39.618Z,18.05
2019-03-28T00:10:09.645Z,22.77
2019-03-28T00:12:40.070Z,14.65
2019-03-28T00:15:09.414Z,17.60
2019-03-28T00:17:38.681Z,16.93
2019-03-28T00:20:08.183Z,19.82
2019-03-28T00:22:56.671Z,19.82
2019-03-28T00:25:26.907Z,18.00
2019-03-28T00:27:56.166Z,19.00
2019-03-28T00:30:25.450Z,19.25
2019-03-28T00:32:54.695Z,17.82
2019-03-28T00:35:23.966Z,22.00
2019-03-28T00:37:53.227Z,22.85
2019-03-28T00:40:22.487Z,19.15
2019-03-28T00:42:51.746Z,20.65
2019-03-28T00:45:21.018Z,19.15
2019-03-28T00:47:50.274Z,17.60
2019-03-28T00:50:19.558Z,20.02
2019-03-28T00:52:48.820Z,16.93
2019-03-28T00:55:18.194Z,21.15
2019-03-28T00:57:47.483Z,23.57
2019-03-28T01:00:18.084Z,20.08
2019-03-28T04:01:46.860Z,23.50
2019-03-28T04:04:16.455Z,20.95
2019-03-28T04:06:45.972Z,20.23
2019-03-28T04:09:15.235Z,18.07
2019-03-28T04:11:44.502Z,16.77
2019-03-28T04:14:13.766Z,14.90
2019-03-28T04:16:43.035Z,20.62
2019-03-28T04:19:12.792Z,19.30
2019-03-28T04:21:42.092Z,19.80
2019-03-28T04:24:11.339Z,18.60
2019-03-28T04:26:40.616Z,26.48
2019-03-28T04:29:09.875Z,25.45
2019-03-28T04:31:39.139Z,23.10
2019-03-28T04:34:09.539Z,18.82
2019-03-28T04:36:40.954Z,18.70
2019-03-28T04:39:10.800Z,19.75
2019-03-28T04:41:40.052Z,18.17
2019-03-28T04:44:09.587Z,17.70
2019-03-28T04:46:38.854Z,22.70
2019-03-28T04:49:08.114Z,17.32
2019-03-28T04:51:37.390Z,17.23
2019-03-28T04:54:09.710Z,19.27
2019-03-28T04:56:38.267Z,16.27
2019-03-28T04:59:07.634Z,20.25
2019-03-28T05:01:36.911Z,18.42
2019-03-28T05:04:06.176Z,16.75
2019-03-28T05:06:37.876Z,19.87
2019-03-28T05:09:06.410Z,14.47
2019-03-28T05:11:35.950Z,18.75
2019-03-28T05:14:05.509Z,17.57
2019-03-28T05:16:34.783Z,20.60
2019-03-28T05:19:04.052Z,20.75
2019-03-28T05:21:33.322Z,21.45
2019-03-28T05:24:02.595Z,25.23
2019-03-28T05:26:31.855Z,27.10
2019-03-28T05:29:01.122Z,23.85
2019-03-28T05:31:30.396Z,18.30
2019-03-28T05:33:59.666Z,18.15
2019-03-28T05:36:28.928Z,17.35
2019-03-28T05:38:58.232Z,22.30
2019-03-28T05:41:27.491Z,23.45
2019-03-28T05:43:57.028Z,18.45
2019-03-28T05:46:27.366Z,24.57
2019-03-28T05:48:56.631Z,23.20
2019-03-28T05:51:25.896Z,22.20
2019-03-28T05:53:55.167Z,23.18
2019-03-28T05:56:24.434Z,19.23
2019-03-28T05:58:54.173Z,21.62
2019-03-28T06:01:23.542Z,21.65
2019-03-28T06:03:53.784Z,21.40
2019-03-28T06:06:24.118Z,19.05
2019-03-28T06:08:53.630Z,17.05
2019-03-28T06:11:22.901Z,21.97
2019-03-28T06:13:52.168Z,16.67
2019-03-28T06:16:21.504Z,23.57
2019-03-28T06:18:51.039Z,23.20
2019-03-28T06:21:21.402Z,21.87
2019-03-28T06:23:52.015Z,26.50
2019-03-28T06:26:21.291Z,20.57
2019-03-28T06:28:51.362Z,21.87
2019-03-28T06:31:20.804Z,22.27
2019-03-28T06:33:50.088Z,23.47
2019-03-28T06:36:19.391Z,26.87
2019-03-28T06:38:48.731Z,22.77
2019-03-28T06:41:18.236Z,29.87
2019-03-28T06:43:47.499Z,20.23
2019-03-28T06:46:16.766Z,21.70
2019-03-28T06:48:46.030Z,24.67
2019-03-28T06:51:15.290Z,22.25
2019-03-28T06:53:44.566Z,23.22
2019-03-28T06:56:14.905Z,22.37
2019-03-28T06:58:44.466Z,23.07
2019-03-28T07:01:13.979Z,25.08
2019-03-28T07:03:43.250Z,23.98
2019-03-28T07:06:12.532Z,29.63
2019-03-28T07:08:41.798Z,26.00
2019-03-28T07:11:11.390Z,23.92
2019-03-28T07:13:40.662Z,24.60
2019-03-28T07:16:09.931Z,22.30
2019-03-28T07:18:39.194Z,20.60
2019-03-28T07:21:08.462Z,26.23
2019-03-28T07:23:37.763Z,20.85
2019-03-28T07:26:07.026Z,25.82
2019-03-28T07:28:36.286Z,23.18
2019-03-28T07:31:05.828Z,26.15
2019-03-28T07:33:35.094Z,22.65
2019-03-28T07:36:04.611Z,22.90
2019-03-28T07:38:33.882Z,26.17
2019-03-28T07:41:03.419Z,28.70
2019-03-28T07:43:32.698Z,32.65
2019-03-28T07:46:01.959Z,30.43
2019-03-28T07:48:31.244Z,29.30
2019-03-28T07:51:00.502Z,31.02
2019-03-28T07:53:29.763Z,30.20
2019-03-28T07:55:59.030Z,33.02
2019-03-28T07:58:28.299Z,32.60
2019-03-28T08:00:57.643Z,30.68
2019-03-28T08:03:27.494Z,27.40
2019-03-28T08:05:56.960Z,27.93
2019-03-28T08:08:38.278Z,31.37
2019-03-28T08:10:57.191Z,34.25
2019-03-28T08:13:26.456Z,30.92
2019-03-28T08:15:55.722Z,32.80
2019-03-28T08:18:24.986Z,33.70
2019-03-28T08:20:55.331Z,32.53
2019-03-28T08:23:24.594Z,34.25
2019-03-28T08:25:53.869Z,34.78
2019-03-28T08:28:23.139Z,36.13
2019-03-28T08:30:52.735Z,33.25
2019-03-28T08:33:22.006Z,31.57
2019-03-28T08:35:51.288Z,34.90
2019-03-28T08:38:22.283Z,30.25
2019-03-28T08:40:51.740Z,38.13
2019-03-28T08:43:21.263Z,40.58
2019-03-28T08:45:50.530Z,30.43
2019-03-28T08:48:19.792Z,38.80
2019-03-28T08:50:49.397Z,37.08
2019-03-28T08:53:18.654Z,39.42
2019-03-28T08:55:47.932Z,38.73
2019-03-28T08:58:17.196Z,39.75
2019-03-28T09:00:52.095Z,39.88
2019-03-28T09:03:17.423Z,44.20
2019-03-28T09:05:46.763Z,40.67
2019-03-28T09:08:16.006Z,40.43
2019-03-28T09:10:45.276Z,39.35
2019-03-28T09:13:14.863Z,36.83
2019-03-28T09:15:44.351Z,39.60
2019-03-28T09:18:13.794Z,40.88
2019-03-28T09:20:43.066Z,38.73
2019-03-28T09:23:12.412Z,38.75
2019-03-28T09:25:41.696Z,44.53
2019-03-28T09:28:11.030Z,39.98
2019-03-28T09:30:48.597Z,44.63
2019-03-28T09:33:13.370Z,38.28
2019-03-28T09:35:42.786Z,31.70
2019-03-28T09:38:12.184Z,41.23
2019-03-28T09:40:41.459Z,37.93
2019-03-28T09:43:10.726Z,38.10
2019-03-28T09:45:40.010Z,39.55
2019-03-28T09:48:11.585Z,36.38
2019-03-28T09:50:40.488Z,34.13
2019-03-28T09:53:09.758Z,37.70
2019-03-28T09:55:39.028Z,36.75
2019-03-28T09:58:08.305Z,38.10
2019-03-28T10:00:37.744Z,34.10
2019-03-28T10:03:07.026Z,33.65
2019-03-28T10:05:38.023Z,33.23
2019-03-28T10:08:07.358Z,34.13
2019-03-28T10:10:36.714Z,31.60
2019-03-28T10:13:05.982Z,30.55
2019-03-28T10:15:36.998Z,31.12
2019-03-28T10:18:06.647Z,32.95
2019-03-28T10:20:35.918Z,31.07
2019-03-28T10:23:05.211Z,38.13
2019-03-28T10:25:34.462Z,30.08
2019-03-28T10:28:03.803Z,29.48
2019-03-28T10:30:43.927Z,28.85
2019-03-28T10:33:13.213Z,31.23
2019-03-28T10:35:42.475Z,27.95
2019-03-28T10:38:12.000Z,32.35
2019-03-28T10:40:41.275Z,30.25
2019-03-28T10:43:10.547Z,27.75
2019-03-28T10:45:39.818Z,24.67
2019-03-28T10:48:09.094Z,26.50
2019-03-28T10:50:45.263Z,24.57
2019-03-28T10:53:09.581Z,22.65
2019-03-28T10:55:38.915Z,25.65
2019-03-28T10:58:18.475Z,23.12
2019-03-28T11:00:39.510Z,26.00
2019-03-28T11:03:09.050Z,27.13
2019-03-28T11:05:38.323Z,22.98
2019-03-28T11:08:07.673Z,26.05
2019-03-28T11:10:37.226Z,22.48
2019-03-28T11:13:09.305Z,25.00
2019-03-28T11:15:37.734Z,23.07
2019-03-28T11:18:06.999Z,21.02
2019-03-28T11:20:39.781Z,21.85
2019-03-28T11:23:07.542Z,25.97
2019-03-28T11:25:36.818Z,22.25
2019-03-28T11:28:06.118Z,19.98
2019-03-28T11:30:35.371Z,18.37
2019-03-28T11:33:06.467Z,13.55
2019-03-28T11:35:35.686Z,13.45
2019-03-28T11:38:04.974Z,19.70
2019-03-28T11:40:34.250Z,12.80
2019-03-28T11:43:03.520Z,13.68
2019-03-28T11:45:32.862Z,10.88
2019-03-28T11:48:02.134Z,14.47
2019-03-28T11:50:31.679Z,12.43
2019-03-28T11:53:01.184Z,13.25
2019-03-28T11:55:30.454Z,11.22
2019-03-28T11:58:00.015Z,13.60
2019-03-28T12:00:29.610Z,11.48
2019-03-28T12:02:59.126Z,11.80
2019-03-28T12:05:28.398Z,10.60
2019-03-28T12:07:57.667Z,12.30
2019-03-28T12:10:26.938Z,12.53
2019-03-28T12:12:56.206Z,10.72
2019-03-28T12:15:25.475Z,9.80
2019-03-28T12:17:54.735Z,11.20
2019-03-28T12:20:24.186Z,10.35
2019-03-28T12:22:56.004Z,8.88
2019-03-28T12:25:24.406Z,9.33
2019-03-28T12:27:53.679Z,9.25
2019-03-28T12:30:23.786Z,9.23
2019-03-28T12:32:53.056Z,10.53
2019-03-28T12:35:22.612Z,7.67
2019-03-28T12:37:52.098Z,7.50
2019-03-28T12:40:21.354Z,6.90
2019-03-28T12:42:50.629Z,7.37
2019-03-28T12:45:19.892Z,7.95
2019-03-28T12:47:49.158Z,7.55
2019-03-28T12:50:18.588Z,7.92
2019-03-28T12:52:48.110Z,8.98
2019-03-28T12:55:17.446Z,8.35
2019-03-28T12:57:48.294Z,6.62
2019-03-28T13:00:20.746Z,8.33
2019-03-28T13:02:50.015Z,6.05
2019-03-28T13:05:19.282Z,6.00
2019-03-28T13:07:48.843Z,8.68
2019-03-28T13:10:18.464Z,6.97
2019-03-28T13:12:47.730Z,7.08
2019-03-28T13:15:17.259Z,16.85
2019-03-28T13:17:46.527Z,7.20
2019-03-28T13:20:16.039Z,7.22
2019-03-28T13:22:45.570Z,7.17
2019-03-28T13:25:14.922Z,8.60
2019-03-28T13:27:44.191Z,6.50
2019-03-28T13:30:14.513Z,8.90
2019-03-28T13:32:43.778Z,8.23
2019-03-28T13:35:13.114Z,5.25
2019-03-28T13:37:42.382Z,7.30
2019-03-28T13:40:13.281Z,7.35
2019-03-28T13:42:42.850Z,7.80
2019-03-28T13:45:12.750Z,6.47
2019-03-28T13:47:42.022Z,5.92
2019-03-28T13:50:13.498Z,7.17
2019-03-28T13:52:42.848Z,6.22
2019-03-28T13:55:12.338Z,5.10
2019-03-28T13:57:43.442Z,4.92
2019-03-28T14:00:13.418Z,5.97
2019-03-28T14:02:55.670Z,5.67
2019-03-28T14:05:13.970Z,7.08
2019-03-28T14:07:43.232Z,5.75
2019-03-28T14:10:14.306Z,5.90
2019-03-28T14:12:43.595Z,8.08
2019-03-28T14:15:12.974Z,5.25
2019-03-28T14:17:42.247Z,5.05
2019-03-28T14:20:12.262Z,6.05
2019-03-28T14:22:41.526Z,6.80
2019-03-28T14:25:11.123Z,5.95
2019-03-28T14:27:40.402Z,6.05
2019-03-28T14:30:11.512Z,5.87
2019-03-28T14:32:52.444Z,6.35
2019-03-28T14:35:12.447Z,6.05
2019-03-28T14:37:42.027Z,5.83
2019-03-28T14:40:11.731Z,5.85
2019-03-28T14:42:41.282Z,7.22
2019-03-28T14:45:11.667Z,8.25
2019-03-28T14:47:40.982Z,6.58
2019-03-28T14:50:12.098Z,5.80
2019-03-28T14:52:41.363Z,6.12
2019-03-28T14:55:10.862Z,5.62
2019-03-28T14:57:40.874Z,7.35
2019-03-28T15:00:28.382Z,6.53
2019-03-28T15:02:57.650Z,6.37
2019-03-28T15:05:26.911Z,8.18
2019-03-28T15:07:56.179Z,8.33
2019-03-28T15:10:25.450Z,6.97
2019-03-28T15:12:54.714Z,7.67
2019-03-28T15:15:23.979Z,7.20
2019-03-28T15:17:53.243Z,5.83
2019-03-28T15:20:22.570Z,7.65
2019-03-28T15:22:51.831Z,8.28
2019-03-28T15:25:21.098Z,10.13
2019-03-28T15:27:50.693Z,6.90
2019-03-28T15:30:19.957Z,8.68
2019-03-28T15:32:49.301Z,6.97
2019-03-28T15:35:18.570Z,8.25
2019-03-28T15:37:47.830Z,7.72
2019-03-28T15:40:17.334Z,7.92
2019-03-28T15:42:46.667Z,7.72
2019-03-28T15:45:15.998Z,6.97
2019-03-28T15:47:45.330Z,7.28
2019-03-28T15:50:14.758Z,8.13
2019-03-28T15:52:44.034Z,7.30
2019-03-28T15:55:14.910Z,6.83
2019-03-28T15:57:44.461Z,5.85
2019-03-28T16:00:14.315Z,7.58
2019-03-28T16:02:43.615Z,7.55
2019-03-28T16:05:12.879Z,6.37
2019-03-28T16:07:42.142Z,6.17
2019-03-28T16:10:14.733Z,6.45
2019-03-28T16:12:43.406Z,7.30
2019-03-28T16:15:13.610Z,7.50
2019-03-28T16:17:42.877Z,5.85
2019-03-28T16:20:12.778Z,8.65
2019-03-28T16:22:42.047Z,8.80
2019-03-28T16:25:11.306Z,5.08
2019-03-28T16:27:40.575Z,6.20
2019-03-28T16:30:12.379Z,6.87
2019-03-28T16:32:41.707Z,6.65
2019-03-28T16:35:12.179Z,7.17
2019-03-28T16:37:41.450Z,9.15
2019-03-28T16:40:11.555Z,7.85
2019-03-28T16:42:41.739Z,7.47
2019-03-28T16:45:11.308Z,6.80
2019-03-28T16:47:40.560Z,6.55
2019-03-28T16:50:10.163Z,7.50
2019-03-28T16:52:39.422Z,7.08
2019-03-28T16:55:08.701Z,7.53
2019-03-28T16:57:37.955Z,7.37
2019-03-28T17:00:15.550Z,8.08
2019-03-28T17:02:45.974Z,7.62
2019-03-28T17:05:15.694Z,7.62
2019-03-28T17:07:47.122Z,7.45
2019-03-28T17:10:34.369Z,7.95
2019-03-28T17:13:03.638Z,7.92
2019-03-28T17:15:33.167Z,11.80
2019-03-28T17:18:02.434Z,7.80
2019-03-28T17:20:31.762Z,9.20
2019-03-28T17:23:01.757Z,8.55
2019-03-28T17:25:31.490Z,8.30
2019-03-28T17:28:01.212Z,10.55
2019-03-28T17:30:30.483Z,10.28
2019-03-28T17:32:59.743Z,8.75
2019-03-28T17:35:29.648Z,11.43
2019-03-28T17:37:59.112Z,8.35
2019-03-28T17:40:28.372Z,7.78
2019-03-28T17:42:57.646Z,10.95
2019-03-28T17:45:26.910Z,9.55
2019-03-28T17:47:56.439Z,10.13
2019-03-28T17:50:25.715Z,10.38
2019-03-28T17:52:54.991Z,16.07
2019-03-28T17:55:24.275Z,13.22
2019-03-28T17:57:53.850Z,14.20
2019-03-28T18:00:23.374Z,15.08
2019-03-28T18:02:52.636Z,12.03
2019-03-28T18:05:22.879Z,12.78
2019-03-28T18:07:52.169Z,14.78
2019-03-28T18:10:21.426Z,16.00
2019-03-28T18:12:50.696Z,12.35
2019-03-28T18:15:19.975Z,13.88
2019-03-28T18:17:49.239Z,13.08
2019-03-28T18:20:19.552Z,13.68
2019-03-28T18:22:49.124Z,17.15
2019-03-28T18:25:18.411Z,13.30
2019-03-28T18:27:48.647Z,14.47
2019-03-28T18:30:19.874Z,15.93
2019-03-28T18:32:50.138Z,15.63
2019-03-28T18:35:19.581Z,16.50
2019-03-28T18:37:48.856Z,13.10
2019-03-28T18:40:18.448Z,15.18
2019-03-28T18:42:47.731Z,15.98
2019-03-28T18:45:17.854Z,14.23
2019-03-28T18:47:47.131Z,15.68
2019-03-28T18:50:16.749Z,14.28
2019-03-28T18:52:46.024Z,15.75
2019-03-28T18:55:15.578Z,14.20
2019-03-28T18:57:44.853Z,13.80
2019-03-28T19:00:14.563Z,14.20
2019-03-28T19:02:43.841Z,16.48
2019-03-28T19:05:19.654Z,15.20
2019-03-28T19:07:44.532Z,15.20
2019-03-28T19:10:14.158Z,14.43
2019-03-28T19:12:43.500Z,15.53
2019-03-28T19:15:13.216Z,16.67
2019-03-28T19:17:42.552Z,16.57
2019-03-28T19:20:12.866Z,15.35
2019-03-28T19:22:42.134Z,16.73
2019-03-28T19:25:11.846Z,13.03
2019-03-28T19:27:41.119Z,15.40
2019-03-28T19:30:12.477Z,16.20
2019-03-28T19:32:41.949Z,14.65
2019-03-28T19:35:12.642Z,14.47
2019-03-28T19:37:42.087Z,16.55
2019-03-28T19:40:11.905Z,14.20
2019-03-28T19:42:41.174Z,14.78
2019-03-28T19:45:10.886Z,13.55
2019-03-28T19:47:40.158Z,15.85
2019-03-28T19:50:11.585Z,14.28
2019-03-28T19:52:40.858Z,15.70
2019-03-28T19:55:13.212Z,14.95
2019-03-28T19:57:42.482Z,12.55
2019-03-28T20:00:11.991Z,12.30
2019-03-28T20:02:41.571Z,13.58
2019-03-28T20:05:10.910Z,14.75
2019-03-28T20:07:40.478Z,15.35
2019-03-28T20:10:16.145Z,12.15
2019-03-28T20:12:41.253Z,15.95
2019-03-28T20:15:10.864Z,12.55
2019-03-28T20:17:40.317Z,13.38
2019-03-28T20:20:09.922Z,15.53
2019-03-28T20:22:39.480Z,12.80
2019-03-28T20:25:09.590Z,11.78
2019-03-28T20:27:38.856Z,12.65
2019-03-28T20:30:08.911Z,13.00
2019-03-28T20:32:39.538Z,14.65
2019-03-28T20:35:10.715Z,12.63
2019-03-28T20:37:40.622Z,11.65
2019-03-28T20:40:10.447Z,11.38
2019-03-28T20:42:39.878Z,13.13
2019-03-28T20:45:10.916Z,11.40
2019-03-28T20:47:40.390Z,11.22
2019-03-28T20:50:10.501Z,11.55
2019-03-28T20:52:39.766Z,12.85
2019-03-28T20:55:10.365Z,12.28
2019-03-28T20:57:40.535Z,10.10
2019-03-28T21:00:12.939Z,12.80
2019-03-28T21:02:42.662Z,11.28
2019-03-28T21:05:14.331Z,9.88
2019-03-28T21:07:43.403Z,11.38
2019-03-28T21:10:15.749Z,12.03
2019-03-28T21:12:45.018Z,11.48
2019-03-28T21:15:14.279Z,12.33
2019-03-28T21:17:43.591Z,12.47
2019-03-28T21:20:13.267Z,11.35
2019-03-28T21:22:42.567Z,10.25
2019-03-28T21:25:11.905Z,9.78
2019-03-28T21:27:41.187Z,12.73
2019-03-28T21:30:10.898Z,15.70
2019-03-28T21:32:40.490Z,13.38
2019-03-28T21:35:10.012Z,10.30
2019-03-28T21:37:39.307Z,11.00
2019-03-28T21:40:08.754Z,12.80
2019-03-28T21:42:38.781Z,10.85
2019-03-28T21:45:08.282Z,11.30
2019-03-28T21:47:37.550Z,10.72
2019-03-28T21:50:07.171Z,11.12
2019-03-28T21:52:36.426Z,12.75
2019-03-28T21:55:07.418Z,12.30
2019-03-28T21:57:38.119Z,12.47
2019-03-28T22:00:08.494Z,12.90
2019-03-28T22:02:37.830Z,11.97
2019-03-28T22:05:07.626Z,13.48
2019-03-28T22:07:37.085Z,10.08
2019-03-28T22:10:09.931Z,11.33
2019-03-28T22:12:39.191Z,10.43
2019-03-28T22:15:09.208Z,12.47
2019-03-28T22:17:38.474Z,11.55
2019-03-28T22:20:09.055Z,11.30
2019-03-28T22:22:38.327Z,11.43
2019-03-28T22:25:07.775Z,12.05
2019-03-28T22:27:37.049Z,12.65
2019-03-28T22:30:07.181Z,12.60
2019-03-28T22:32:36.450Z,13.13
2019-03-28T22:35:08.743Z,11.90
2019-03-28T22:37:38.014Z,13.70
2019-03-28T22:40:11.489Z,12.00
2019-03-28T22:42:39.291Z,13.88
2019-03-28T22:45:08.890Z,14.25
2019-03-28T22:47:38.166Z,15.45
2019-03-28T22:50:07.601Z,19.55
2019-03-28T22:52:36.878Z,19.02
2019-03-28T22:55:07.898Z,21.60
2019-03-28T22:57:37.171Z,20.35
2019-03-28T23:00:09.458Z,21.62
2019-03-28T23:02:40.515Z,21.82
2019-03-28T23:05:11.799Z,17.32
2019-03-28T23:07:41.217Z,17.87
2019-03-28T23:10:11.164Z,18.10
2019-03-28T23:12:40.454Z,17.98
2019-03-28T23:15:10.800Z,21.73
2019-03-28T23:17:40.319Z,14.87
2019-03-28T23:20:10.986Z,18.05
2019-03-28T23:22:40.287Z,21.57
2019-03-28T23:25:10.837Z,19.67
2019-03-28T23:27:40.267Z,13.40
2019-03-28T23:30:09.815Z,14.53
2019-03-28T23:32:39.193Z,17.77
2019-03-28T23:35:09.790Z,11.80
2019-03-28T23:37:39.054Z,18.55
2019-03-28T23:40:09.562Z,17.45
2019-03-28T23:42:38.828Z,16.87
2019-03-28T23:45:12.178Z,18.70
2019-03-28T23:47:42.178Z,17.55
2019-03-28T23:50:11.733Z,15.98
2019-03-28T23:52:40.984Z,15.40
2019-03-28T23:55:10.621Z,13.68
2019-03-28T23:57:39.883Z,17.23
